createdAt,value
2018-11-14T00:00:36.069Z,55.76
2018-11-14T00:03:04.745Z,55.97
2018-11-14T00:05:32.950Z,55.98
2018-11-14T00:08:00.765Z,55.64
2018-11-14T00:10:28.511Z,56.08
2018-11-14T00:12:56.361Z,56.67
2018-11-14T00:15:24.410Z,55.73
2018-11-14T00:17:51.704Z,56.36
2018-11-14T00:20:18.569Z,56.37
2018-11-14T00:22:47.487Z,55.75
2018-11-14T00:25:15.329Z,55.33
2018-11-14T00:27:44.570Z,55.76
2018-11-14T00:30:17.948Z,56.33
2018-11-14T00:32:47.884Z,56.22
2018-11-14T00:35:16.920Z,56.06
2018-11-14T00:37:47.342Z,55.92
2018-11-14T00:40:21.105Z,56.09
2018-11-14T00:42:50.826Z,55.88
2018-11-14T00:45:21.159Z,55.57
2018-11-14T00:47:58.572Z,56.09
2018-11-14T00:50:30.116Z,56.10
2018-11-14T00:52:57.008Z,56.07
2018-11-14T00:55:26.757Z,55.74
2018-11-14T00:57:53.628Z,56.08
2018-11-14T01:00:23.629Z,55.22
2018-11-14T01:02:51.265Z,55.55
2018-11-14T01:05:18.805Z,55.78
2018-11-14T01:07:45.698Z,55.18
2018-11-14T01:10:15.055Z,55.51
2018-11-14T01:12:42.227Z,55.35
2018-11-14T01:15:10.883Z,55.38
2018-11-14T01:17:40.132Z,55.29
2018-11-14T01:20:13.642Z,55.54
2018-11-14T01:22:50.696Z,55.50
2018-11-14T01:25:20.628Z,55.52
2018-11-14T01:27:51.793Z,55.23
2018-11-14T01:30:24.333Z,55.16
2018-11-14T01:32:53.949Z,55.42
2018-11-14T01:35:28.007Z,55.42
2018-11-14T01:37:58.655Z,55.31
2018-11-14T01:40:27.395Z,55.03
2018-11-14T01:42:59.616Z,55.56
2018-11-14T01:48:17.728Z,55.56
2018-11-14T01:50:47.514Z,55.72
2018-11-14T01:53:15.350Z,55.35
2018-11-14T01:55:42.192Z,55.69
2018-11-14T01:58:09.030Z,55.90
2018-11-14T02:00:35.804Z,55.85
2018-11-14T02:03:02.672Z,55.38
2018-11-14T02:05:29.518Z,55.82
2018-11-14T02:07:56.356Z,55.66
2018-11-14T02:10:24.783Z,55.04
2018-11-14T02:12:55.456Z,55.13
2018-11-14T02:15:24.418Z,55.62
2018-11-14T02:17:52.615Z,55.27
2018-11-14T02:20:20.053Z,55.46
2018-11-14T02:22:48.890Z,55.00
2018-11-14T02:25:17.481Z,55.57
2018-11-14T02:27:48.077Z,55.87
2018-11-14T02:30:17.683Z,55.76
2018-11-14T02:32:47.088Z,55.53
2018-11-14T02:35:18.230Z,55.65
2018-11-14T02:37:48.115Z,55.59
2018-11-14T02:40:17.469Z,55.62
2018-11-14T02:42:46.109Z,55.40
2018-11-14T02:45:18.985Z,55.05
2018-11-14T02:47:46.794Z,55.34
2018-11-14T02:50:14.796Z,55.57
2018-11-14T02:52:42.440Z,55.36
2018-11-14T02:55:10.063Z,55.56
2018-11-14T02:57:36.928Z,55.49
2018-11-14T03:00:03.943Z,54.98
2018-11-14T03:02:33.889Z,54.95
2018-11-14T03:05:00.729Z,55.15
2018-11-14T03:07:29.120Z,55.51
2018-11-14T03:09:56.761Z,55.93
2018-11-14T03:12:24.498Z,55.63
2018-11-14T03:14:57.446Z,55.53
2018-11-14T03:20:13.856Z,54.65
2018-11-14T03:22:46.243Z,54.59
2018-11-14T03:25:23.739Z,55.13
2018-11-14T03:27:51.525Z,55.16
2018-11-14T03:30:18.595Z,55.24
2018-11-14T03:32:47.324Z,54.61
2018-11-14T03:35:15.397Z,54.85
2018-11-14T03:37:42.234Z,54.69
2018-11-14T03:40:10.417Z,54.40
2018-11-14T03:42:38.153Z,54.63
2018-11-14T03:45:05.575Z,54.72
2018-11-14T03:47:34.181Z,54.88
2018-11-14T03:50:02.887Z,55.14
2018-11-14T03:52:31.064Z,54.82
2018-11-14T03:55:00.159Z,55.04
2018-11-14T03:57:26.988Z,54.72
2018-11-14T03:59:59.430Z,54.93
2018-11-14T04:02:26.959Z,54.90
2018-11-14T04:04:56.097Z,54.91
2018-11-14T04:07:24.790Z,54.68
2018-11-14T04:09:56.508Z,54.48
2018-11-14T04:12:29.274Z,54.36
2018-11-14T04:14:59.103Z,54.72
2018-11-14T04:17:27.917Z,54.58
2018-11-14T04:19:54.764Z,54.85
2018-11-14T04:22:22.423Z,54.74
2018-11-14T04:24:50.141Z,54.03
2018-11-14T04:27:17.984Z,54.52
2018-11-14T04:29:45.764Z,54.52
2018-11-14T04:32:14.854Z,54.76
2018-11-14T04:34:42.667Z,54.74
2018-11-14T04:37:09.511Z,54.23
2018-11-14T04:39:37.287Z,54.28
2018-11-14T04:42:05.152Z,54.74
2018-11-14T04:44:32.919Z,54.82
2018-11-14T04:47:00.744Z,54.08
2018-11-14T04:49:28.529Z,54.31
2018-11-14T04:51:57.288Z,54.64
2018-11-14T04:54:24.944Z,54.79
2018-11-14T04:56:52.895Z,54.46
2018-11-14T04:59:29.300Z,54.11
2018-11-14T05:01:57.946Z,55.21
2018-11-14T05:04:25.943Z,54.04
2018-11-14T05:06:53.697Z,54.71
2018-11-14T05:09:21.440Z,53.64
2018-11-14T05:11:49.247Z,54.10
2018-11-14T05:14:16.866Z,54.26
2018-11-14T05:16:45.859Z,54.73
2018-11-14T05:19:14.409Z,54.13
2018-11-14T05:21:41.286Z,54.32
2018-11-14T05:24:09.172Z,54.87
2018-11-14T05:26:35.993Z,54.71
2018-11-14T05:29:02.831Z,54.27
2018-11-14T05:31:30.477Z,53.77
2018-11-14T05:33:58.324Z,54.38
2018-11-14T05:36:25.180Z,54.23
2018-11-14T05:38:52.921Z,54.01
2018-11-14T05:41:20.550Z,54.45
2018-11-14T05:43:48.451Z,54.96
2018-11-14T05:46:16.081Z,55.05
2018-11-14T05:48:43.643Z,55.21
2018-11-14T05:51:11.409Z,54.71
2018-11-14T05:53:38.275Z,54.43
2018-11-14T05:56:06.040Z,54.28
2018-11-14T05:58:33.954Z,54.18
2018-11-14T06:01:00.794Z,54.64
2018-11-14T06:03:28.638Z,54.49
2018-11-14T06:05:55.406Z,54.10
2018-11-14T06:08:23.201Z,53.27
2018-11-14T06:10:50.029Z,53.74
2018-11-14T06:13:16.861Z,53.87
2018-11-14T06:15:44.463Z,54.02
2018-11-14T06:18:11.287Z,54.46
2018-11-14T06:20:38.107Z,54.03
2018-11-14T06:23:05.100Z,54.75
2018-11-14T06:25:33.275Z,53.85
2018-11-14T06:28:01.209Z,53.82
2018-11-14T06:30:28.144Z,54.01
2018-11-14T06:32:56.441Z,54.44
2018-11-14T06:35:23.504Z,54.39
2018-11-14T06:37:51.189Z,53.80
2018-11-14T06:40:19.086Z,53.58
2018-11-14T06:42:46.832Z,53.81
2018-11-14T06:45:16.513Z,53.70
2018-11-14T06:47:44.643Z,53.82
2018-11-14T06:50:14.049Z,53.25
2018-11-14T06:52:42.390Z,53.70
2018-11-14T06:55:10.339Z,54.10
2018-11-14T06:57:39.130Z,53.94
2018-11-14T07:00:07.974Z,54.23
2018-11-14T07:02:38.337Z,54.24
2018-11-14T07:05:03.308Z,53.97
2018-11-14T07:07:31.228Z,53.97
2018-11-14T07:09:59.076Z,53.91
2018-11-14T07:12:25.906Z,54.55
2018-11-14T07:14:53.780Z,54.33
2018-11-14T07:17:20.614Z,54.58
2018-11-14T07:19:48.438Z,54.44
2018-11-14T07:22:16.122Z,54.30
2018-11-14T07:24:43.770Z,54.60
2018-11-14T07:27:11.488Z,54.10
2018-11-14T07:29:39.166Z,54.90
2018-11-14T07:32:06.097Z,54.28
2018-11-14T07:34:33.730Z,54.28
2018-11-14T07:37:00.627Z,53.98
2018-11-14T07:39:28.254Z,53.66
2018-11-14T07:41:55.891Z,54.38
2018-11-14T07:44:22.727Z,54.74
2018-11-14T07:46:50.609Z,54.91
2018-11-14T07:49:18.266Z,54.21
2018-11-14T07:51:46.031Z,54.45
2018-11-14T07:54:14.731Z,54.42
2018-11-14T07:56:42.494Z,54.17
2018-11-14T07:59:10.349Z,54.33
2018-11-14T08:01:38.037Z,54.21
2018-11-14T08:04:04.920Z,54.85
2018-11-14T08:06:31.751Z,55.08
2018-11-14T08:08:59.605Z,54.65
2018-11-14T08:11:27.361Z,54.33
2018-11-14T08:13:55.001Z,54.21
2018-11-14T08:16:22.966Z,54.41
2018-11-14T08:18:49.962Z,54.23
2018-11-14T08:21:16.720Z,55.27
2018-11-14T08:23:44.261Z,54.54
2018-11-14T08:26:11.096Z,54.46
2018-11-14T08:28:37.916Z,55.20
2018-11-14T08:31:04.799Z,55.00
2018-11-14T08:33:31.627Z,54.10
2018-11-14T08:36:05.353Z,55.07
2018-11-14T08:38:32.224Z,55.44
2018-11-14T08:40:58.992Z,54.71
2018-11-14T08:43:25.945Z,55.67
2018-11-14T08:45:52.768Z,55.90
2018-11-14T08:48:19.645Z,55.38
2018-11-14T08:50:46.492Z,54.49
2018-11-14T08:53:14.172Z,54.82
2018-11-14T08:55:40.984Z,55.11
2018-11-14T08:58:09.874Z,55.59
2018-11-14T09:00:36.690Z,54.55
2018-11-14T09:03:03.583Z,55.46
2018-11-14T09:05:30.392Z,55.65
2018-11-14T09:07:57.167Z,55.32
2018-11-14T09:10:26.052Z,55.18
2018-11-14T09:12:53.932Z,55.16
2018-11-14T09:15:23.009Z,54.69
2018-11-14T09:17:50.944Z,55.58
2018-11-14T09:20:20.634Z,55.29
2018-11-14T09:22:48.378Z,56.03
2018-11-14T09:25:18.145Z,55.59
2018-11-14T09:27:45.912Z,55.73
2018-11-14T09:30:14.500Z,54.75
2018-11-14T09:32:42.102Z,56.09
2018-11-14T09:35:11.593Z,55.21
2018-11-14T09:37:39.615Z,55.54
2018-11-14T09:40:08.069Z,55.02
2018-11-14T09:42:36.492Z,55.90
2018-11-14T09:45:03.738Z,56.04
2018-11-14T09:47:31.572Z,55.82
2018-11-14T09:49:59.432Z,55.24
2018-11-14T09:52:26.339Z,55.72
2018-11-14T09:54:53.288Z,56.39
2018-11-14T09:57:20.277Z,56.33
2018-11-14T09:59:48.080Z,56.87
2018-11-14T10:02:15.779Z,56.21
2018-11-14T10:04:42.647Z,56.64
2018-11-14T10:07:10.439Z,56.41
2018-11-14T10:09:38.287Z,56.23
2018-11-14T10:12:05.183Z,56.70
2018-11-14T10:14:32.008Z,56.83
2018-11-14T10:16:58.872Z,56.77
2018-11-14T10:19:25.704Z,56.09
2018-11-14T10:21:52.577Z,55.77
2018-11-14T10:24:20.471Z,56.69
2018-11-14T10:26:47.344Z,55.59
2018-11-14T10:29:15.243Z,56.57
2018-11-14T10:31:42.162Z,55.74
2018-11-14T10:34:09.030Z,56.72
2018-11-14T10:36:35.865Z,56.41
2018-11-14T10:39:02.952Z,56.72
2018-11-14T10:41:30.770Z,55.99
2018-11-14T10:43:57.742Z,55.74
2018-11-14T10:46:24.578Z,56.93
2018-11-14T10:48:51.402Z,57.05
2018-11-14T10:51:19.084Z,57.16
2018-11-14T10:53:46.022Z,56.15
2018-11-14T10:56:12.885Z,56.33
2018-11-14T10:58:40.813Z,56.34
2018-11-14T11:01:14.238Z,56.11
2018-11-14T11:03:47.556Z,56.21
2018-11-14T11:06:33.731Z,56.62
2018-11-14T11:09:06.255Z,56.41
2018-11-14T11:11:38.873Z,56.78
2018-11-14T11:14:11.465Z,56.76
2018-11-14T11:16:44.114Z,56.42
2018-11-14T11:19:11.034Z,56.80
2018-11-14T11:21:38.686Z,56.68
2018-11-14T11:24:05.545Z,56.44
2018-11-14T11:26:32.383Z,56.67
2018-11-14T11:28:59.162Z,55.74
2018-11-14T11:31:26.062Z,56.25
2018-11-14T11:33:53.773Z,57.03
2018-11-14T11:36:21.437Z,56.89
2018-11-14T11:38:49.188Z,56.54
2018-11-14T11:41:17.007Z,56.73
2018-11-14T11:43:45.738Z,57.10
2018-11-14T11:46:12.611Z,56.47
2018-11-14T11:48:40.262Z,57.15
2018-11-14T11:51:08.153Z,56.82
2018-11-14T11:53:34.987Z,56.63
2018-11-14T11:56:02.782Z,57.12
2018-11-14T11:58:30.585Z,56.90
2018-11-14T12:00:58.402Z,55.99
2018-11-14T12:03:26.030Z,57.18
2018-11-14T12:05:52.905Z,56.80
2018-11-14T12:08:20.636Z,56.74
2018-11-14T12:10:48.413Z,56.43
2018-11-14T12:13:16.279Z,56.67
2018-11-14T12:15:44.230Z,55.95
2018-11-14T12:18:11.951Z,56.99
2018-11-14T12:20:39.771Z,56.46
2018-11-14T12:23:06.673Z,56.88
2018-11-14T12:25:34.477Z,56.74
2018-11-14T12:28:02.227Z,56.33
2018-11-14T12:30:29.097Z,56.37
2018-11-14T12:32:56.717Z,56.00
2018-11-14T12:35:23.607Z,56.36
2018-11-14T12:37:51.432Z,56.33
2018-11-14T12:40:18.340Z,56.10
2018-11-14T12:42:46.044Z,56.25
2018-11-14T12:45:15.177Z,56.12
2018-11-14T12:47:43.969Z,56.26
2018-11-14T12:50:12.768Z,55.98
2018-11-14T12:52:40.934Z,56.45
2018-11-14T12:55:10.302Z,57.50
2018-11-14T12:57:37.138Z,56.65
2018-11-14T13:00:05.658Z,56.59
2018-11-14T13:02:33.498Z,56.44
2018-11-14T13:05:01.201Z,56.28
2018-11-14T13:07:29.354Z,56.39
2018-11-14T13:09:57.155Z,56.36
2018-11-14T13:12:24.904Z,56.56
2018-11-14T13:14:53.057Z,55.95
2018-11-14T13:17:19.914Z,56.18
2018-11-14T13:19:47.768Z,56.35
2018-11-14T13:22:17.178Z,56.00
2018-11-14T13:24:44.924Z,56.16
2018-11-14T13:27:12.594Z,56.64
2018-11-14T13:29:40.403Z,57.00
2018-11-14T13:32:07.273Z,56.58
2018-11-14T13:34:35.083Z,57.04
2018-11-14T13:37:02.936Z,57.44
2018-11-14T13:39:30.773Z,57.83
2018-11-14T13:41:58.640Z,56.60
2018-11-14T13:44:26.357Z,55.92
2018-11-14T13:46:54.222Z,55.98
2018-11-14T13:49:21.185Z,56.05
2018-11-14T13:51:49.087Z,56.34
2018-11-14T13:54:16.988Z,56.97
2018-11-14T13:56:45.905Z,57.00
2018-11-14T13:59:14.530Z,56.92
2018-11-14T14:01:41.348Z,57.69
2018-11-14T14:04:09.139Z,57.29
2018-11-14T14:06:36.776Z,57.54
2018-11-14T14:09:06.309Z,57.63
2018-11-14T14:11:33.138Z,56.83
2018-11-14T14:14:06.529Z,57.16
2018-11-14T14:16:34.298Z,56.64
2018-11-14T14:19:02.000Z,56.86
2018-11-14T14:21:29.728Z,57.13
2018-11-14T14:23:57.371Z,57.62
2018-11-14T14:26:25.380Z,57.18
2018-11-14T14:28:53.474Z,57.03
2018-11-14T14:31:21.130Z,56.93
2018-11-14T14:33:48.842Z,56.72
2018-11-14T14:36:16.623Z,56.17
2018-11-14T14:38:44.993Z,56.36
2018-11-14T14:41:12.749Z,56.64
2018-11-14T14:43:39.595Z,56.77
2018-11-14T14:46:07.257Z,56.59
2018-11-14T14:48:35.009Z,56.12
2018-11-14T14:51:01.873Z,56.05
2018-11-14T14:53:28.702Z,55.90
2018-11-14T14:55:56.446Z,56.11
2018-11-14T14:58:24.165Z,56.09
2018-11-14T15:00:50.994Z,56.38
2018-11-14T15:03:17.839Z,55.99
2018-11-14T15:05:45.914Z,56.26
2018-11-14T15:08:12.739Z,55.72
2018-11-14T15:10:39.553Z,55.64
2018-11-14T15:13:06.398Z,55.59
2018-11-14T15:15:33.289Z,55.75
2018-11-14T15:18:00.913Z,55.75
2018-11-14T15:20:27.771Z,56.00
2018-11-14T15:22:54.718Z,56.14
2018-11-14T15:25:22.570Z,55.90
2018-11-14T15:27:49.973Z,56.08
2018-11-14T15:30:19.057Z,55.90
2018-11-14T15:32:45.861Z,55.72
2018-11-14T15:35:14.848Z,56.14
2018-11-14T15:37:41.667Z,55.75
2018-11-14T15:40:10.866Z,55.64
2018-11-14T15:42:38.929Z,55.77
2018-11-14T15:45:07.547Z,55.85
2018-11-14T15:47:36.266Z,55.01
2018-11-14T15:50:03.134Z,55.75
2018-11-14T15:52:30.917Z,55.69
2018-11-14T15:54:58.741Z,55.75
2018-11-14T15:57:26.524Z,55.36
2018-11-14T15:59:54.283Z,55.29
2018-11-14T16:02:21.954Z,55.38
2018-11-14T16:04:48.880Z,55.03
2018-11-14T16:07:15.785Z,55.09
2018-11-14T16:09:42.636Z,55.21
2018-11-14T16:12:09.569Z,55.66
2018-11-14T16:14:36.448Z,55.93
2018-11-14T16:17:04.295Z,56.07
2018-11-14T16:19:32.102Z,55.04
2018-11-14T16:21:59.935Z,55.57
2018-11-14T16:24:27.703Z,54.75
2018-11-14T16:29:40.096Z,55.31
2018-11-14T16:32:06.886Z,55.21
2018-11-14T16:34:33.700Z,55.40
2018-11-14T16:37:00.534Z,55.31
2018-11-14T16:39:28.284Z,55.08
2018-11-14T16:41:55.905Z,55.36
2018-11-14T16:44:22.921Z,55.85
2018-11-14T16:46:50.546Z,55.63
2018-11-14T16:49:17.377Z,54.71
2018-11-14T16:51:45.308Z,56.19
2018-11-14T16:54:13.705Z,54.85
2018-11-14T16:56:41.337Z,55.51
2018-11-14T16:59:09.196Z,54.92
2018-11-14T17:01:36.829Z,55.88
2018-11-14T17:04:03.711Z,55.08
2018-11-14T17:06:31.501Z,54.92
2018-11-14T17:08:59.152Z,54.53
2018-11-14T17:11:27.051Z,55.82
2018-11-14T17:13:54.830Z,54.34
2018-11-14T17:16:22.503Z,54.34
2018-11-14T17:18:50.344Z,55.10
2018-11-14T17:21:17.200Z,54.85
2018-11-14T17:23:44.860Z,54.02
2018-11-14T17:26:11.836Z,54.52
2018-11-14T17:28:38.624Z,54.95
2018-11-14T17:31:06.453Z,54.69
2018-11-14T17:33:34.288Z,55.85
2018-11-14T17:36:01.218Z,55.87
2018-11-14T17:38:28.901Z,54.79
2018-11-14T17:40:56.706Z,54.77
2018-11-14T17:43:23.540Z,55.37
2018-11-14T17:45:51.377Z,54.62
2018-11-14T17:48:18.251Z,54.72
2018-11-14T17:50:46.020Z,55.14
2018-11-14T17:53:12.816Z,54.63
2018-11-14T17:55:39.689Z,55.75
2018-11-14T17:58:06.531Z,54.30
2018-11-14T18:00:33.391Z,54.25
2018-11-14T18:03:00.392Z,54.15
2018-11-14T18:05:28.636Z,54.21
2018-11-14T18:07:56.126Z,54.59
2018-11-14T18:10:25.023Z,54.28
2018-11-14T18:12:52.927Z,54.41
2018-11-14T18:15:19.988Z,54.00
2018-11-14T18:17:50.234Z,54.21
2018-11-14T18:20:18.618Z,54.35
2018-11-14T18:22:47.336Z,53.97
2018-11-14T18:25:15.303Z,54.95
2018-11-14T18:27:44.814Z,53.86
2018-11-14T18:30:14.751Z,54.20
2018-11-14T18:32:42.405Z,54.28
2018-11-14T18:35:12.074Z,54.42
2018-11-14T18:37:39.680Z,53.67
2018-11-14T18:40:16.032Z,53.93
2018-11-14T18:42:44.943Z,53.66
2018-11-14T18:45:15.129Z,53.84
2018-11-14T18:47:42.343Z,53.86
2018-11-14T18:50:09.888Z,54.12
2018-11-14T18:52:37.543Z,53.64
2018-11-14T18:55:05.295Z,53.70
2018-11-14T18:57:33.169Z,53.57
2018-11-14T19:00:00.955Z,53.58
2018-11-14T19:02:28.624Z,53.38
2018-11-14T19:04:56.350Z,54.04
2018-11-14T19:07:24.102Z,53.64
2018-11-14T19:09:51.893Z,53.21
2018-11-14T19:12:19.508Z,53.48
2018-11-14T19:14:47.238Z,53.17
2018-11-14T19:17:15.043Z,53.37
2018-11-14T19:19:41.886Z,53.61
2018-11-14T19:22:08.726Z,53.57
2018-11-14T19:24:36.555Z,53.59
2018-11-14T19:27:04.453Z,53.47
2018-11-14T19:29:32.232Z,53.49
2018-11-14T19:31:59.107Z,53.46
2018-11-14T19:34:25.962Z,53.52
2018-11-14T19:36:53.704Z,53.46
2018-11-14T19:39:20.461Z,53.23
2018-11-14T19:41:47.326Z,53.49
2018-11-14T19:44:14.824Z,53.27
2018-11-14T19:46:42.559Z,54.06
2018-11-14T19:49:10.389Z,53.43
2018-11-14T19:51:37.268Z,53.46
2018-11-14T19:54:04.646Z,53.90
2018-11-14T19:56:31.496Z,53.05
2018-11-14T19:58:58.353Z,52.93
2018-11-14T20:01:25.188Z,52.65
2018-11-14T20:03:52.829Z,52.85
2018-11-14T20:06:19.697Z,53.00
2018-11-14T20:08:46.540Z,53.86
2018-11-14T20:11:14.182Z,53.05
2018-11-14T20:13:41.899Z,53.23
2018-11-14T20:16:09.713Z,53.24
2018-11-14T20:18:37.518Z,53.30
2018-11-14T20:21:05.308Z,53.20
2018-11-14T20:23:32.177Z,53.53
2018-11-14T20:25:59.114Z,53.75
2018-11-14T20:28:25.940Z,53.81
2018-11-14T20:30:52.802Z,53.36
2018-11-14T20:33:19.769Z,53.33
2018-11-14T20:35:46.601Z,53.34
2018-11-14T20:38:14.693Z,53.39
2018-11-14T20:40:42.696Z,54.19
2018-11-14T20:43:09.579Z,53.33
2018-11-14T20:45:36.452Z,54.33
2018-11-14T20:48:04.257Z,53.42
2018-11-14T20:50:31.099Z,53.88
2018-11-14T20:52:59.845Z,53.03
2018-11-14T20:55:26.869Z,52.88
2018-11-14T20:57:53.820Z,53.77
2018-11-14T21:00:27.127Z,54.59
2018-11-14T21:02:54.027Z,53.64
2018-11-14T21:05:21.837Z,53.19
2018-11-14T21:07:48.734Z,54.00
2018-11-14T21:10:17.080Z,54.49
2018-11-14T21:12:44.159Z,53.45
2018-11-14T21:15:14.363Z,53.34
2018-11-14T21:17:41.407Z,53.13
2018-11-14T21:20:08.679Z,54.31
2018-11-14T21:22:36.524Z,53.11
2018-11-14T21:25:03.649Z,54.32
2018-11-14T21:27:31.566Z,53.23
2018-11-14T21:29:58.962Z,54.08
2018-11-14T21:32:25.834Z,54.08
2018-11-14T21:34:52.780Z,53.02
2018-11-14T21:37:20.443Z,53.04
2018-11-14T21:39:47.318Z,53.49
2018-11-14T21:42:14.772Z,54.17
2018-11-14T21:44:41.611Z,52.82
2018-11-14T21:47:08.461Z,53.12
2018-11-14T21:49:36.178Z,53.61
2018-11-14T21:52:03.017Z,53.17
2018-11-14T21:54:30.859Z,53.64
2018-11-14T21:56:57.703Z,53.17
2018-11-14T21:59:24.673Z,53.24
2018-11-14T22:01:52.549Z,53.09
2018-11-14T22:04:20.215Z,53.44
2018-11-14T22:06:47.130Z,53.25
2018-11-14T22:09:15.634Z,53.11
2018-11-14T22:11:42.540Z,53.09
2018-11-14T22:14:09.967Z,53.95
2018-11-14T22:16:36.811Z,54.02
2018-11-14T22:19:04.031Z,53.15
2018-11-14T22:21:32.406Z,52.92
2018-11-14T22:24:00.160Z,53.89
2018-11-14T22:26:27.005Z,54.22
2018-11-14T22:28:53.864Z,54.83
2018-11-14T22:31:21.710Z,55.38
2018-11-14T22:33:48.579Z,55.74
2018-11-14T22:36:16.388Z,55.77
2018-11-14T22:38:44.186Z,54.05
2018-11-14T22:41:11.014Z,55.49
2018-11-14T22:43:38.796Z,55.49
2018-11-14T22:46:05.566Z,54.38
2018-11-14T22:48:33.253Z,54.54
2018-11-14T22:51:00.085Z,53.79
2018-11-14T22:53:27.740Z,53.54
2018-11-14T22:55:55.401Z,53.18
2018-11-14T22:58:23.050Z,54.71
2018-11-14T23:00:49.908Z,54.03
2018-11-14T23:03:16.735Z,54.45
2018-11-14T23:05:44.249Z,54.40
2018-11-14T23:08:11.116Z,54.10
2018-11-14T23:10:37.960Z,55.21
2018-11-14T23:13:04.803Z,53.64
2018-11-14T23:15:31.706Z,53.20
2018-11-14T23:17:58.525Z,53.81
2018-11-14T23:20:25.340Z,54.50
2018-11-14T23:22:52.757Z,53.67
2018-11-14T23:25:19.996Z,54.00
2018-11-14T23:27:48.972Z,53.95
2018-11-14T23:30:17.790Z,53.08
2018-11-14T23:32:46.637Z,53.92
2018-11-14T23:35:32.232Z,53.48
2018-11-14T23:38:05.116Z,53.25
2018-11-14T23:40:31.994Z,53.36
2018-11-14T23:42:58.862Z,54.06
2018-11-14T23:45:26.440Z,53.02
2018-11-14T23:47:53.292Z,52.79
2018-11-14T23:50:21.279Z,53.54
2018-11-14T23:52:49.159Z,53.37
2018-11-14T23:55:17.628Z,53.59
2018-11-14T23:57:45.089Z,53.01
